Time;durP1;ratioP1;P1;durP2;ratioP2;P2;SDS_P1;SDS_P2;PMS_P1;PMS_P2;Temp;Humidity;BMP_temperature;BMP_pressure;BME280_temperature;BME280_humidity;BME280_pressure;Samples;Min_cycle;Max_cycle;Signal;HPM_P1;HPM_P2
2022/05/30 00:02:28;;;;;;;5.27;2.97;;;11.30;99.90;;;;;;6250708;22;20518;-91
2022/05/30 00:05:00;;;;;;;9.43;3.23;;;11.40;99.90;;;;;;6249751;23;20186;-92
2022/05/30 00:07:30;;;;;;;6.97;3.17;;;11.40;99.90;;;;;;6251598;23;20179;-91
2022/05/30 00:10:02;;;;;;;8.10;3.50;;;11.50;99.90;;;;;;6251675;22;20254;-91
2022/05/30 00:12:34;;;;;;;4.93;2.80;;;11.60;99.90;;;;;;6265985;22;20168;-91
2022/05/30 00:15:06;;;;;;;6.90;3.23;;;11.50;99.90;;;;;;6265946;22;20164;-93
2022/05/30 00:17:38;;;;;;;9.97;3.40;;;11.50;99.90;;;;;;6264447;23;20664;-91
2022/05/30 00:20:11;;;;;;;7.03;2.83;;;11.40;99.90;;;;;;6263138;23;20180;-91
2022/05/30 00:22:43;;;;;;;5.90;2.97;;;11.40;99.90;;;;;;6260247;22;20222;-90
2022/05/30 00:25:16;;;;;;;8.13;3.50;;;11.50;99.90;;;;;;6263761;23;20164;-91
2022/05/30 00:27:48;;;;;;;8.30;3.10;;;11.40;99.90;;;;;;6262558;23;20183;-92
2022/05/30 00:30:19;;;;;;;6.63;3.03;;;11.50;99.90;;;;;;6248592;22;20203;-91
2022/05/30 00:32:49;;;;;;;10.60;3.47;;;11.50;99.90;;;;;;6248500;22;20176;-91
2022/05/30 00:35:20;;;;;;;8.73;3.50;;;11.50;99.90;;;;;;6256452;22;20175;-91
2022/05/30 00:37:52;;;;;;;10.10;3.53;;;11.50;99.90;;;;;;6263205;22;20188;-91
2022/05/30 00:40:24;;;;;;;10.23;3.13;;;11.50;99.90;;;;;;6259295;23;20164;-91
2022/05/30 00:42:55;;;;;;;5.60;3.17;;;11.40;99.90;;;;;;6263380;22;20204;-91
2022/05/30 00:45:26;;;;;;;8.50;3.63;;;11.20;99.90;;;;;;6255873;22;20199;-91
2022/05/30 00:47:58;;;;;;;7.13;3.10;;;11.20;99.90;;;;;;6248368;22;20233;-91
2022/05/30 00:50:29;;;;;;;8.30;3.70;;;11.30;99.90;;;;;;6251990;23;20203;-90
2022/05/30 00:53:01;;;;;;;7.03;3.63;;;11.40;99.90;;;;;;6262347;22;20164;-90
2022/05/30 00:55:35;;;;;;;6.07;3.30;;;11.40;99.90;;;;;;6261684;23;20182;-90
2022/05/30 00:58:07;;;;;;;10.00;4.20;;;11.30;99.90;;;;;;6263541;23;20167;-88
2022/05/30 01:00:38;;;;;;;7.43;2.70;;;11.30;99.90;;;;;;6264331;22;20175;-90
2022/05/30 01:08:47;;;;;;;5.53;2.80;;;11.10;99.90;;;;;;6268617;22;20163;-89
2022/05/30 01:11:20;;;;;;;6.37;2.80;;;11.00;99.90;;;;;;6268533;22;20211;-91
2022/05/30 01:13:52;;;;;;;10.83;3.80;;;10.90;99.90;;;;;;6266645;23;20167;-92
2022/05/30 01:16:24;;;;;;;6.47;3.20;;;10.90;99.90;;;;;;6262731;23;20194;-91
2022/05/30 01:19:01;;;;;;;11.80;3.77;;;10.90;99.90;;;;;;6260965;22;20179;-91
2022/05/30 01:22:00;;;;;;;9.53;4.00;;;10.90;99.90;;;;;;6262696;23;20199;-93
2022/05/30 01:24:48;;;;;;;15.13;6.10;;;10.80;99.90;;;;;;6267369;22;20182;-93
2022/05/30 01:27:37;;;;;;;10.53;4.97;;;10.80;99.90;;;;;;6273013;22;20160;-90
2022/05/30 01:30:15;;;;;;;8.93;3.63;;;10.70;99.90;;;;;;6270817;22;20214;-93
2022/05/30 01:32:47;;;;;;;13.57;4.27;;;10.70;99.90;;;;;;6262115;23;20168;-93
2022/05/30 01:35:25;;;;;;;15.53;4.43;;;10.70;99.90;;;;;;6252722;22;20172;-93
2022/05/30 01:37:58;;;;;;;9.37;4.10;;;10.70;99.90;;;;;;6250542;22;20182;-92
2022/05/30 01:40:32;;;;;;;7.03;3.73;;;10.70;99.90;;;;;;6258824;22;20168;-93
2022/05/30 01:43:03;;;;;;;6.23;2.93;;;10.70;99.90;;;;;;6260066;22;20187;-92
2022/05/30 01:45:38;;;;;;;9.30;3.70;;;10.70;99.90;;;;;;6266206;22;20156;-93
2022/05/30 01:48:11;;;;;;;9.17;3.80;;;10.70;99.90;;;;;;6270105;22;20179;-93
2022/05/30 01:50:43;;;;;;;6.27;3.50;;;10.70;99.90;;;;;;6271140;22;20183;-93
2022/05/30 01:53:17;;;;;;;6.83;3.20;;;10.60;99.90;;;;;;6270993;22;20159;-92
2022/05/30 01:58:24;;;;;;;7.17;3.43;;;10.70;99.90;;;;;;6182296;23;20188;-94
2022/05/30 02:00:59;;;;;;;6.70;3.30;;;10.70;99.90;;;;;;6182549;23;20177;-92
2022/05/30 02:03:31;;;;;;;7.70;3.53;;;10.70;99.90;;;;;;6182604;23;20173;-91
2022/05/30 02:06:02;;;;;;;8.87;3.93;;;10.70;99.90;;;;;;6182317;23;20181;-95
2022/05/30 02:08:34;;;;;;;7.03;3.40;;;10.70;99.90;;;;;;6183320;23;20166;-95
2022/05/30 02:11:08;;;;;;;8.87;3.47;;;10.70;99.90;;;;;;6158081;23;20189;-92
2022/05/30 02:13:40;;;;;;;7.33;3.40;;;10.70;99.90;;;;;;6175951;22;20213;-95
2022/05/30 02:19:03;;;;;;;6.03;3.30;;;10.60;99.90;;;;;;6179991;23;20166;-94
2022/05/30 02:21:36;;;;;;;6.90;3.17;;;10.70;99.90;;;;;;6150887;23;20167;-95
2022/05/30 02:24:09;;;;;;;5.50;3.90;;;10.60;99.90;;;;;;6149193;23;20186;-90
2022/05/30 02:26:41;;;;;;;6.97;3.30;;;10.70;99.90;;;;;;6150430;23;20193;-93
2022/05/30 02:29:16;;;;;;;6.27;2.70;;;10.60;99.90;;;;;;6124480;23;20163;-95
2022/05/30 02:31:50;;;;;;;6.10;2.90;;;10.60;99.90;;;;;;6149630;23;20212;-95
2022/05/30 02:37:12;;;;;;;6.37;2.97;;;10.60;99.90;;;;;;6147542;23;20206;-94
2022/05/30 02:39:44;;;;;;;10.37;3.73;;;10.60;99.90;;;;;;6147522;23;20171;-94
2022/05/30 02:42:16;;;;;;;8.13;3.63;;;10.40;99.90;;;;;;6144295;23;20193;-94
2022/05/30 02:44:48;;;;;;;6.80;2.83;;;10.50;99.90;;;;;;6145062;23;20178;-94
2022/05/30 02:47:22;;;;;;;8.00;3.43;;;10.40;99.90;;;;;;6145969;23;20187;-93
2022/05/30 02:49:54;;;;;;;5.33;2.70;;;10.40;99.90;;;;;;6150656;23;20166;-94
2022/05/30 02:52:30;;;;;;;7.40;3.10;;;10.50;99.90;;;;;;6205889;22;20231;-93
2022/05/30 02:55:02;;;;;;;6.97;3.50;;;10.40;99.90;;;;;;6267717;23;20168;-92
2022/05/30 03:00:09;;;;;;;5.67;2.33;;;10.30;99.90;;;;;;6259263;22;20228;-92
2022/05/30 03:02:44;;;;;;;8.37;3.00;;;10.30;99.90;;;;;;6303371;22;20176;-94
2022/05/30 03:05:16;;;;;;;7.20;2.83;;;10.20;99.90;;;;;;6300904;22;20175;-90
2022/05/30 03:07:48;;;;;;;5.33;2.70;;;10.20;99.90;;;;;;6271224;22;20178;-94
2022/05/30 03:12:54;;;;;;;8.70;3.70;;;10.10;99.90;;;;;;6258391;22;20194;-93
2022/05/30 03:15:26;;;;;;;11.47;3.20;;;10.10;99.90;;;;;;6273108;22;20187;-92
2022/05/30 03:18:03;;;;;;;6.67;3.13;;;10.10;99.90;;;;;;6246707;23;20168;-93
2022/05/30 03:20:35;;;;;;;7.07;2.87;;;10.00;99.90;;;;;;6266663;23;20179;-93
2022/05/30 03:23:06;;;;;;;8.03;3.03;;;9.90;99.90;;;;;;6266925;23;20180;-93
2022/05/30 03:28:14;;;;;;;5.43;2.80;;;9.80;99.90;;;;;;6188208;23;20238;-91
2022/05/30 03:30:45;;;;;;;5.23;2.83;;;9.70;99.90;;;;;;6207844;22;20704;-93
2022/05/30 03:36:15;;;;;;;6.70;3.23;;;9.90;99.90;;;;;;6293728;22;20276;-94
2022/05/30 03:38:46;;;;;;;8.70;2.80;;;9.90;99.90;;;;;;6302058;22;20171;-94
2022/05/30 03:41:18;;;;;;;5.67;2.80;;;10.00;99.90;;;;;;6301896;22;20174;-94
2022/05/30 03:43:50;;;;;;;5.83;2.30;;;10.00;99.90;;;;;;6303409;22;20186;-94
2022/05/30 03:46:22;;;;;;;6.93;2.83;;;9.90;99.90;;;;;;6301330;22;20234;-93
2022/05/30 03:48:54;;;;;;;6.67;3.20;;;9.90;99.90;;;;;;6297039;22;20285;-94
2022/05/30 03:51:28;;;;;;;6.50;3.30;;;9.90;99.90;;;;;;6298052;22;20229;-93
2022/05/30 03:53:59;;;;;;;7.13;2.90;;;9.90;99.90;;;;;;6297873;22;20189;-93
2022/05/30 03:56:30;;;;;;;9.37;3.63;;;9.90;99.90;;;;;;6298805;22;20178;-94
2022/05/30 03:59:02;;;;;;;7.57;3.13;;;9.90;99.90;;;;;;6299993;22;20209;-94
2022/05/30 04:04:08;;;;;;;4.33;2.80;;;9.90;99.90;;;;;;6209803;23;20252;-93
2022/05/30 04:06:48;;;;;;;4.33;2.90;;;9.90;99.90;;;;;;6204658;23;20181;-92
2022/05/30 04:09:21;;;;;;;8.20;2.50;;;9.90;99.90;;;;;;6206037;23;20181;-93
2022/05/30 04:11:53;;;;;;;5.40;2.47;;;10.00;99.90;;;;;;6202593;23;20212;-91
2022/05/30 04:14:24;;;;;;;4.80;2.40;;;9.90;99.90;;;;;;6204870;23;20165;-93
2022/05/30 04:16:56;;;;;;;5.53;2.57;;;9.90;99.90;;;;;;6203917;23;20224;-92
2022/05/30 04:19:28;;;;;;;6.43;2.20;;;9.80;99.90;;;;;;6201207;23;20169;-92
2022/05/30 04:22:02;;;;;;;5.43;2.20;;;9.80;99.90;;;;;;6204387;23;20233;-92
2022/05/30 04:24:34;;;;;;;5.87;2.40;;;9.80;99.90;;;;;;6225994;22;20211;-94
2022/05/30 04:27:07;;;;;;;4.37;2.37;;;9.90;99.90;;;;;;6243512;22;20191;-93
2022/05/30 04:29:39;;;;;;;6.23;2.60;;;9.90;99.90;;;;;;6268187;22;20206;-92
2022/05/30 04:32:12;;;;;;;8.23;3.13;;;9.80;99.90;;;;;;6263307;23;20215;-92
2022/05/30 04:34:43;;;;;;;8.97;3.20;;;9.80;99.90;;;;;;6268770;23;20182;-92
2022/05/30 04:37:18;;;;;;;7.23;3.03;;;9.90;99.90;;;;;;6271434;23;20185;-92
2022/05/30 04:39:49;;;;;;;9.10;3.20;;;9.80;99.90;;;;;;6270864;22;20186;-92
2022/05/30 04:42:21;;;;;;;7.73;2.83;;;9.80;99.90;;;;;;6268466;22;20194;-92
2022/05/30 04:50:08;;;;;;;5.20;2.90;;;9.70;99.90;;;;;;6256443;23;20198;-91
2022/05/30 04:52:44;;;;;;;6.57;2.83;;;9.80;99.90;;;;;;6271227;22;20249;-93
2022/05/30 04:55:25;;;;;;;7.20;3.23;;;9.80;99.90;;;;;;6255321;23;20164;-93
2022/05/30 04:57:58;;;;;;;6.10;2.90;;;9.80;99.90;;;;;;6251833;23;20672;-93
2022/05/30 05:00:29;;;;;;;6.60;2.67;;;9.80;99.90;;;;;;6250840;23;20506;-93
2022/05/30 05:03:00;;;;;;;7.67;2.93;;;9.80;99.90;;;;;;6251813;23;20172;-94
2022/05/30 05:08:35;;;;;;;3.97;2.50;;;9.80;99.90;;;;;;6250816;22;20220;-90
2022/05/30 05:11:17;;;;;;;4.93;2.50;;;9.80;99.90;;;;;;6254865;23;20238;-92
2022/05/30 05:13:51;;;;;;;5.73;2.70;;;9.70;99.90;;;;;;6256172;23;20214;-92
2022/05/30 05:16:24;;;;;;;8.23;2.47;;;9.60;99.90;;;;;;6259056;23;20196;-92
2022/05/30 05:18:58;;;;;;;8.97;3.43;;;9.70;99.90;;;;;;6229692;23;20263;-93
2022/05/30 05:21:32;;;;;;;8.03;2.83;;;9.70;99.90;;;;;;6251771;23;20255;-92
2022/05/30 05:24:07;;;;;;;8.40;3.23;;;9.70;99.90;;;;;;6253490;23;20184;-92
2022/05/30 05:26:45;;;;;;;7.97;2.90;;;9.70;99.90;;;;;;6249992;23;20229;-92
2022/05/30 05:29:19;;;;;;;7.37;2.93;;;9.70;99.90;;;;;;6264127;23;20223;-93
2022/05/30 05:31:53;;;;;;;5.83;2.73;;;9.70;99.90;;;;;;6230562;23;20183;-93
2022/05/30 05:34:24;;;;;;;4.37;2.77;;;9.70;99.90;;;;;;6259945;23;20211;-92
2022/05/30 05:36:57;;;;;;;7.03;2.80;;;9.70;99.90;;;;;;6252910;23;20172;-92
2022/05/30 05:39:30;;;;;;;5.97;3.00;;;9.70;99.90;;;;;;6252625;23;20187;-92
2022/05/30 05:42:02;;;;;;;5.90;2.90;;;9.80;99.90;;;;;;6253147;23;20176;-92
2022/05/30 05:44:33;;;;;;;7.27;2.73;;;9.80;99.90;;;;;;6253188;23;20183;-92
2022/05/30 05:47:07;;;;;;;6.63;2.40;;;9.60;99.90;;;;;;6253634;23;20180;-92
2022/05/30 05:49:38;;;;;;;5.13;2.50;;;9.60;99.90;;;;;;6255961;23;20172;-93
2022/05/30 05:52:10;;;;;;;5.20;2.73;;;9.70;99.90;;;;;;6266971;23;20192;-92
2022/05/30 05:54:44;;;;;;;6.13;2.70;;;9.60;99.90;;;;;;6266991;23;20190;-92
2022/05/30 05:57:18;;;;;;;4.00;2.50;;;9.70;99.90;;;;;;6231052;23;20626;-92
2022/05/30 05:59:50;;;;;;;4.60;2.80;;;9.60;99.90;;;;;;6253023;23;20203;-92
2022/05/30 06:02:22;;;;;;;4.50;2.30;;;9.60;99.90;;;;;;6256807;23;20265;-91
2022/05/30 06:04:54;;;;;;;5.73;2.33;;;9.70;99.90;;;;;;6253787;23;20221;-92
2022/05/30 06:07:26;;;;;;;7.10;2.43;;;9.70;99.90;;;;;;6254574;23;20198;-92
2022/05/30 06:10:00;;;;;;;6.90;2.50;;;9.50;99.90;;;;;;6252173;23;20191;-92
2022/05/30 06:12:32;;;;;;;10.20;2.93;;;9.50;99.90;;;;;;6252798;23;20196;-92
2022/05/30 06:15:05;;;;;;;3.37;2.67;;;9.30;99.90;;;;;;6262307;23;20209;-93
2022/05/30 06:17:39;;;;;;;6.30;2.93;;;9.30;99.90;;;;;;6244756;23;20246;-90
2022/05/30 06:20:13;;;;;;;7.20;3.27;;;9.30;99.90;;;;;;6260640;23;20258;-92
2022/05/30 06:22:45;;;;;;;6.20;3.57;;;9.40;99.90;;;;;;6257523;23;20188;-92
2022/05/30 06:25:18;;;;;;;8.07;3.60;;;9.40;99.90;;;;;;6228993;23;20172;-92
2022/05/30 06:27:49;;;;;;;4.70;3.07;;;9.50;99.90;;;;;;6252541;23;20168;-92
2022/05/30 06:30:21;;;;;;;5.33;3.20;;;9.60;99.90;;;;;;6252014;23;20206;-93
2022/05/30 06:32:52;;;;;;;3.97;2.30;;;9.60;99.90;;;;;;6252722;23;20218;-93
2022/05/30 06:35:23;;;;;;;6.70;2.57;;;9.60;99.90;;;;;;6252004;23;20180;-92
2022/05/30 06:37:54;;;;;;;4.07;2.43;;;9.60;99.90;;;;;;6260796;23;20168;-93
2022/05/30 06:40:27;;;;;;;5.77;2.37;;;9.60;99.90;;;;;;6251906;23;20190;-93
2022/05/30 06:42:58;;;;;;;4.93;2.17;;;9.60;99.90;;;;;;6252820;23;20198;-93
2022/05/30 06:45:31;;;;;;;5.07;2.30;;;9.50;99.90;;;;;;6254779;23;20594;-93
2022/05/30 06:48:03;;;;;;;5.87;2.00;;;9.50;99.90;;;;;;6257742;23;20302;-92
2022/05/30 06:50:34;;;;;;;6.80;2.50;;;9.50;99.90;;;;;;6253179;23;20230;-92
2022/05/30 06:53:06;;;;;;;6.17;2.33;;;9.50;99.90;;;;;;6257262;23;20188;-93
2022/05/30 06:55:40;;;;;;;6.03;2.03;;;9.50;99.90;;;;;;6258922;23;20222;-93
2022/05/30 06:58:13;;;;;;;4.43;1.80;;;9.50;99.90;;;;;;6253157;23;20168;-93
2022/05/30 07:00:46;;;;;;;4.43;2.07;;;9.50;99.90;;;;;;6252001;23;20216;-93
2022/05/30 07:03:18;;;;;;;5.20;2.30;;;9.50;99.90;;;;;;6255024;23;20180;-93
2022/05/30 07:05:50;;;;;;;5.60;2.30;;;9.50;99.90;;;;;;6252224;23;20179;-93
2022/05/30 07:08:23;;;;;;;5.30;2.07;;;9.50;99.90;;;;;;6248011;22;20199;-92
2022/05/30 07:10:56;;;;;;;4.60;2.13;;;9.50;99.90;;;;;;6250396;22;20172;-93
2022/05/30 07:13:27;;;;;;;4.90;2.07;;;9.50;99.90;;;;;;6262405;23;20195;-93
2022/05/30 07:15:59;;;;;;;5.33;2.10;;;9.50;99.90;;;;;;6264946;22;20222;-92
2022/05/30 07:18:31;;;;;;;5.47;1.90;;;9.50;99.90;;;;;;6258705;23;20168;-92
2022/05/30 07:21:05;;;;;;;4.30;2.10;;;9.50;99.90;;;;;;6262002;22;20167;-92
2022/05/30 07:23:38;;;;;;;6.10;1.53;;;9.50;99.90;;;;;;6251332;22;20237;-92
2022/05/30 07:26:16;;;;;;;5.20;2.00;;;9.40;99.90;;;;;;6252847;23;20267;-93
2022/05/30 07:28:48;;;;;;;4.43;1.90;;;9.50;99.90;;;;;;6252178;23;20218;-92
2022/05/30 07:31:22;;;;;;;5.87;2.20;;;9.50;99.90;;;;;;6250854;22;20202;-93
2022/05/30 07:33:53;;;;;;;5.90;2.13;;;9.40;99.90;;;;;;6252149;22;20206;-93
2022/05/30 07:36:28;;;;;;;4.70;2.13;;;9.40;99.90;;;;;;6250862;22;20176;-93
2022/05/30 07:38:59;;;;;;;5.33;2.37;;;9.50;99.90;;;;;;6266779;23;20201;-93
2022/05/30 07:41:33;;;;;;;5.17;2.20;;;9.50;99.90;;;;;;6267323;22;20233;-92
2022/05/30 07:44:05;;;;;;;6.33;2.13;;;9.40;99.90;;;;;;6268432;22;20219;-92
2022/05/30 07:46:39;;;;;;;6.93;2.70;;;9.40;99.90;;;;;;6264389;22;20172;-93
2022/05/30 07:49:10;;;;;;;4.50;2.23;;;9.40;99.90;;;;;;6256104;23;20167;-93
2022/05/30 07:51:42;;;;;;;5.23;1.97;;;9.40;99.90;;;;;;6251719;22;20611;-93
2022/05/30 07:54:14;;;;;;;7.80;2.00;;;9.40;99.90;;;;;;6252709;22;20479;-93
2022/05/30 07:56:47;;;;;;;7.20;2.23;;;9.40;99.90;;;;;;6255470;23;20164;-93
2022/05/30 07:59:18;;;;;;;4.90;2.30;;;9.40;99.90;;;;;;6251698;22;20168;-93
2022/05/30 08:01:49;;;;;;;4.07;2.00;;;9.40;99.90;;;;;;6259554;22;20207;-93
2022/05/30 08:04:21;;;;;;;4.07;1.83;;;9.40;99.90;;;;;;6270423;22;20160;-91
2022/05/30 08:06:52;;;;;;;8.07;1.90;;;9.30;99.90;;;;;;6265914;22;20183;-92
2022/05/30 08:09:24;;;;;;;5.13;2.17;;;9.30;99.90;;;;;;6251844;23;20172;-93
2022/05/30 08:11:57;;;;;;;6.97;2.20;;;9.30;99.90;;;;;;6226080;23;20233;-93
2022/05/30 08:14:28;;;;;;;4.17;1.90;;;9.40;99.90;;;;;;6251088;23;20199;-92
2022/05/30 08:17:01;;;;;;;4.47;2.07;;;9.40;99.90;;;;;;6253166;23;20641;-93
2022/05/30 08:19:32;;;;;;;6.43;2.47;;;9.40;99.90;;;;;;6253573;23;20175;-94
2022/05/30 08:22:22;;;;;;;3.90;2.03;;;9.40;99.90;;;;;;6251697;23;20179;-94
2022/05/30 08:24:55;;;;;;;6.13;1.93;;;9.40;99.90;;;;;;6256279;23;20679;-92
2022/05/30 08:27:28;;;;;;;2.17;1.73;;;9.40;99.90;;;;;;6258641;23;20206;-92
2022/05/30 08:30:00;;;;;;;3.50;2.03;;;9.40;99.90;;;;;;6249533;23;20194;-92
2022/05/30 08:32:37;;;;;;;5.60;2.30;;;9.40;99.90;;;;;;6252728;23;20225;-92
2022/05/30 08:35:13;;;;;;;4.27;2.10;;;9.30;99.90;;;;;;6254515;23;20199;-92
2022/05/30 08:37:46;;;;;;;3.93;2.13;;;9.30;99.90;;;;;;6252654;23;20221;-92
2022/05/30 08:43:22;;;;;;;4.20;1.90;;;9.30;99.90;;;;;;6253856;23;20176;-92
2022/05/30 08:45:59;;;;;;;4.97;2.07;;;9.30;99.90;;;;;;6252174;23;20168;-91
2022/05/30 08:48:45;;;;;;;3.77;2.20;;;9.30;99.90;;;;;;6224313;23;20195;-92
2022/05/30 08:51:30;;;;;;;4.23;1.77;;;9.40;99.90;;;;;;6250041;23;20233;-91
2022/05/30 08:54:32;;;;;;;4.83;1.97;;;9.40;99.90;;;;;;6252441;23;20204;-92
2022/05/30 08:57:06;;;;;;;3.93;1.97;;;9.40;99.90;;;;;;6254280;23;20243;-92
2022/05/30 09:00:04;;;;;;;7.20;2.30;;;9.40;99.90;;;;;;6252243;23;20191;-92
2022/05/30 09:02:39;;;;;;;7.97;2.20;;;9.30;99.90;;;;;;6251275;23;20245;-92
2022/05/30 09:05:13;;;;;;;5.90;2.20;;;9.40;99.90;;;;;;6251768;23;20168;-92
2022/05/30 09:08:09;;;;;;;4.57;1.83;;;9.40;99.90;;;;;;6252528;23;20218;-93
2022/05/30 09:10:44;;;;;;;5.90;1.77;;;9.40;99.90;;;;;;6251809;23;20206;-92
2022/05/30 09:13:20;;;;;;;3.57;1.70;;;9.40;99.90;;;;;;6253095;23;20522;-92
2022/05/30 09:16:03;;;;;;;3.67;1.93;;;9.30;99.90;;;;;;6252649;23;20211;-92
2022/05/30 09:18:41;;;;;;;4.23;2.30;;;9.30;99.90;;;;;;6253524;23;20194;-92
2022/05/30 09:21:14;;;;;;;3.13;2.00;;;9.30;99.90;;;;;;6251421;23;20179;-92
2022/05/30 09:23:45;;;;;;;7.03;2.20;;;9.30;99.90;;;;;;6252017;23;20283;-92
2022/05/30 09:26:20;;;;;;;6.37;2.40;;;9.30;99.90;;;;;;6252316;23;20175;-92
2022/05/30 09:28:54;;;;;;;4.70;2.00;;;9.30;99.90;;;;;;6253971;23;20305;-92
2022/05/30 09:31:40;;;;;;;6.07;1.97;;;9.30;99.90;;;;;;6251619;23;20175;-91
2022/05/30 09:34:35;;;;;;;2.83;1.90;;;9.30;99.90;;;;;;6253736;23;20220;-92
2022/05/30 09:37:08;;;;;;;3.57;1.80;;;9.30;99.90;;;;;;6258407;23;20172;-92
2022/05/30 09:39:48;;;;;;;4.87;2.20;;;9.30;99.90;;;;;;6253773;23;20267;-92
2022/05/30 09:42:28;;;;;;;3.73;2.20;;;9.30;99.90;;;;;;6268181;23;20640;-92
2022/05/30 09:45:08;;;;;;;4.87;1.97;;;9.30;99.90;;;;;;6269784;23;20195;-91
2022/05/30 09:48:00;;;;;;;4.13;2.03;;;9.30;99.90;;;;;;6271801;23;20167;-92
2022/05/30 09:50:32;;;;;;;5.27;2.00;;;9.30;99.90;;;;;;6267330;23;20156;-92
2022/05/30 09:53:03;;;;;;;3.70;1.80;;;9.30;99.90;;;;;;6265396;23;20176;-92
2022/05/30 09:55:37;;;;;;;2.80;2.07;;;9.30;99.90;;;;;;6266042;23;20199;-90
2022/05/30 09:58:09;;;;;;;4.37;2.23;;;9.30;99.90;;;;;;6264247;23;20167;-92
2022/05/30 10:00:50;;;;;;;7.13;2.20;;;9.30;99.90;;;;;;6261107;23;20172;-92
2022/05/30 10:03:41;;;;;;;3.27;2.10;;;9.30;99.90;;;;;;6235453;23;20183;-91
2022/05/30 10:06:18;;;;;;;5.33;2.13;;;9.30;99.90;;;;;;6273183;22;20254;-91
2022/05/30 10:08:49;;;;;;;4.50;1.80;;;9.30;99.90;;;;;;6273788;22;20167;-92
2022/05/30 10:11:32;;;;;;;3.73;1.90;;;9.30;99.90;;;;;;6273226;22;20175;-92
2022/05/30 10:14:19;;;;;;;4.17;1.77;;;9.30;99.90;;;;;;6270915;22;20167;-91
2022/05/30 10:16:53;;;;;;;4.20;2.17;;;9.30;99.90;;;;;;6273323;22;20241;-91
2022/05/30 10:19:30;;;;;;;3.20;2.07;;;9.30;99.90;;;;;;6269407;22;20168;-91
2022/05/30 10:28:20;;;;;;;5.17;2.33;;;9.30;99.90;;;;;;6253846;23;20175;-92
2022/05/30 10:31:04;;;;;;;6.97;2.20;;;9.30;99.90;;;;;;6252916;23;20611;-93
2022/05/30 10:34:04;;;;;;;4.13;1.90;;;9.30;99.90;;;;;;6254194;23;20606;-92
2022/05/30 10:36:48;;;;;;;8.70;2.30;;;9.20;99.90;;;;;;6189988;23;20210;-92
2022/05/30 10:39:33;;;;;;;5.53;2.60;;;9.20;99.90;;;;;;6226284;23;20567;-92
2022/05/30 10:42:08;;;;;;;4.70;1.97;;;9.20;99.90;;;;;;6251468;23;20203;-92
2022/05/30 10:44:46;;;;;;;3.70;1.90;;;9.20;99.90;;;;;;6225556;23;20174;-92
2022/05/30 10:47:26;;;;;;;3.00;1.70;;;9.20;99.90;;;;;;6254418;23;20180;-92
2022/05/30 10:50:04;;;;;;;4.63;2.37;;;9.20;99.90;;;;;;6257870;23;20206;-91
2022/05/30 10:52:42;;;;;;;3.77;2.00;;;9.20;99.90;;;;;;6253753;22;20182;-93
2022/05/30 10:55:18;;;;;;;4.20;1.93;;;9.20;99.90;;;;;;6253907;23;20577;-92
2022/05/30 10:57:54;;;;;;;5.20;2.17;;;9.20;99.90;;;;;;6253921;23;20226;-92
2022/05/30 11:00:34;;;;;;;3.27;2.07;;;9.20;99.90;;;;;;6250509;23;20570;-93
2022/05/30 11:03:13;;;;;;;4.77;2.20;;;9.20;99.90;;;;;;6253463;23;20203;-92
2022/05/30 11:05:53;;;;;;;4.50;1.90;;;9.20;99.90;;;;;;6255881;23;20191;-92
2022/05/30 11:08:33;;;;;;;7.07;2.10;;;9.20;99.90;;;;;;6253781;23;20184;-92
2022/05/30 11:11:09;;;;;;;3.50;2.43;;;9.20;99.90;;;;;;6253022;23;20604;-92
2022/05/30 11:13:48;;;;;;;2.23;1.77;;;9.20;99.90;;;;;;6252868;23;20160;-92
2022/05/30 11:16:44;;;;;;;5.17;2.20;;;9.20;99.90;;;;;;6252270;23;20688;-91
2022/05/30 11:19:23;;;;;;;2.13;1.67;;;9.20;99.90;;;;;;6251682;23;20213;-92
2022/05/30 11:22:05;;;;;;;3.37;2.10;;;9.10;99.90;;;;;;6250725;23;20173;-92
2022/05/30 11:24:39;;;;;;;4.87;1.90;;;9.10;99.90;;;;;;6254739;23;20226;-91
2022/05/30 11:27:25;;;;;;;3.50;1.70;;;9.20;99.90;;;;;;6251976;23;20171;-92
2022/05/30 11:30:11;;;;;;;7.37;1.80;;;9.10;99.90;;;;;;6225973;23;20596;-92
2022/05/30 11:33:06;;;;;;;4.07;2.17;;;9.10;99.90;;;;;;6254029;23;20221;-91
2022/05/30 11:35:39;;;;;;;2.03;1.80;;;9.10;99.90;;;;;;6263470;23;20544;-89
2022/05/30 11:38:48;;;;;;;4.13;1.93;;;9.10;99.90;;;;;;6258631;23;20251;-92
2022/05/30 11:41:43;;;;;;;4.13;2.00;;;9.10;99.90;;;;;;6251527;23;20236;-92
2022/05/30 11:44:45;;;;;;;5.00;1.50;;;9.10;99.90;;;;;;6251573;23;20168;-92
2022/05/30 11:47:42;;;;;;;6.87;2.07;;;9.10;99.90;;;;;;6252051;23;20225;-92
2022/05/30 11:50:24;;;;;;;4.27;1.77;;;9.10;99.90;;;;;;6264185;23;20214;-92
2022/05/30 11:53:20;;;;;;;3.17;2.00;;;9.10;99.90;;;;;;6253273;23;20168;-92
2022/05/30 11:55:59;;;;;;;4.77;2.00;;;9.10;99.90;;;;;;6250925;23;20259;-92
2022/05/30 11:58:49;;;;;;;4.73;2.00;;;9.00;99.90;;;;;;6226866;23;20179;-92
2022/05/30 12:01:22;;;;;;;2.37;1.80;;;9.00;99.90;;;;;;6250751;23;20164;-91
2022/05/30 12:04:29;;;;;;;5.13;2.13;;;9.00;99.90;;;;;;6225772;23;20207;-92
2022/05/30 12:07:42;;;;;;;3.80;2.00;;;9.00;99.90;;;;;;6257794;23;20195;-90
2022/05/30 12:10:31;;;;;;;4.57;1.70;;;9.00;99.90;;;;;;6216867;23;20183;-92
2022/05/30 12:13:21;;;;;;;4.57;1.60;;;8.90;99.90;;;;;;6251839;23;20172;-92
2022/05/30 12:16:11;;;;;;;2.80;1.73;;;8.90;99.90;;;;;;6251916;23;20629;-92
2022/05/30 12:24:39;;;;;;;5.10;3.13;;;8.90;99.90;;;;;;6261093;23;20183;-92
2022/05/30 12:27:29;;;;;;;3.90;3.03;;;8.90;99.90;;;;;;6257245;23;20168;-91
2022/05/30 12:30:05;;;;;;;7.57;3.60;;;9.00;99.90;;;;;;6250943;23;20252;-92
2022/05/30 12:32:52;;;;;;;8.37;2.70;;;9.00;99.90;;;;;;6225136;23;20564;-92
2022/05/30 12:35:28;;;;;;;5.40;2.57;;;9.00;99.90;;;;;;6253433;23;20210;-92
2022/05/30 12:38:24;;;;;;;4.53;2.47;;;9.00;99.90;;;;;;6253052;23;20179;-92
2022/05/30 12:41:12;;;;;;;5.40;2.10;;;9.00;99.90;;;;;;6229884;23;20520;-92
2022/05/30 12:43:46;;;;;;;4.40;2.57;;;9.00;99.90;;;;;;6235561;23;20176;-92
2022/05/30 12:46:23;;;;;;;5.67;3.20;;;8.90;99.90;;;;;;6251635;23;20164;-92
2022/05/30 12:49:18;;;;;;;4.30;3.00;;;8.90;99.90;;;;;;6250652;23;20171;-92
2022/05/30 12:52:06;;;;;;;6.37;2.60;;;8.90;99.90;;;;;;6251257;23;20244;-92
2022/05/30 12:55:01;;;;;;;4.67;2.70;;;8.90;99.90;;;;;;6253227;23;20184;-92
2022/05/30 12:57:42;;;;;;;5.93;2.30;;;9.00;99.90;;;;;;6249526;23;20222;-92
2022/05/30 13:00:26;;;;;;;5.17;2.40;;;8.90;99.90;;;;;;6249274;23;20687;-91
2022/05/30 13:06:21;;;;;;;4.40;2.00;;;8.90;99.90;;;;;;6256708;23;20198;-92
2022/05/30 13:09:20;;;;;;;5.10;1.77;;;8.80;99.90;;;;;;6255418;23;20214;-92
2022/05/30 13:12:51;;;;;;;3.27;2.03;;;8.90;99.90;;;;;;6250363;23;20179;-91
2022/05/30 13:15:29;;;;;;;6.57;2.30;;;8.90;99.90;;;;;;6249447;23;20191;-91
2022/05/30 13:18:06;;;;;;;3.83;2.10;;;8.80;99.90;;;;;;6249557;23;20229;-92
2022/05/30 13:20:45;;;;;;;5.17;1.87;;;8.80;99.90;;;;;;6249431;23;20171;-92
2022/05/30 13:23:31;;;;;;;3.97;1.70;;;8.90;99.90;;;;;;6250569;23;20196;-91
2022/05/30 13:26:04;;;;;;;4.57;1.40;;;9.00;99.90;;;;;;6250764;23;20171;-89
2022/05/30 13:28:37;;;;;;;3.30;1.83;;;9.10;99.90;;;;;;6249608;23;20176;-91
2022/05/30 13:31:10;;;;;;;3.37;1.53;;;9.10;99.90;;;;;;6249491;23;20609;-91
2022/05/30 13:33:46;;;;;;;2.87;1.63;;;9.20;99.90;;;;;;6249865;23;20168;-91
2022/05/30 13:36:21;;;;;;;6.50;1.90;;;9.30;99.90;;;;;;6224915;23;20214;-92
2022/05/30 13:38:57;;;;;;;3.10;1.43;;;9.30;99.90;;;;;;6250217;23;20176;-92
2022/05/30 13:41:31;;;;;;;3.93;1.33;;;9.30;99.90;;;;;;6248712;23;20203;-91
2022/05/30 13:44:11;;;;;;;3.93;1.30;;;9.30;99.90;;;;;;6250556;23;20176;-91
2022/05/30 13:46:53;;;;;;;5.37;1.70;;;9.30;99.90;;;;;;6249582;23;20182;-92
2022/05/30 13:49:35;;;;;;;4.10;1.47;;;9.40;99.90;;;;;;6249910;23;20175;-91
2022/05/30 13:52:09;;;;;;;2.70;1.40;;;9.40;99.90;;;;;;6251574;23;20168;-91
2022/05/30 13:54:46;;;;;;;5.13;1.73;;;9.50;99.90;;;;;;6252441;23;20682;-92
2022/05/30 13:57:19;;;;;;;2.93;1.20;;;9.50;99.90;;;;;;6256148;23;20199;-90
2022/05/30 13:59:53;;;;;;;3.33;1.33;;;9.60;99.90;;;;;;6256831;23;20180;-93
2022/05/30 14:02:45;;;;;;;2.67;1.40;;;9.60;99.90;;;;;;6230343;23;20179;-92
2022/05/30 14:05:31;;;;;;;3.13;1.30;;;9.80;99.90;;;;;;6252288;23;20203;-92
2022/05/30 14:08:06;;;;;;;2.40;1.10;;;9.90;99.90;;;;;;6251953;23;20202;-92
2022/05/30 14:10:46;;;;;;;1.70;1.20;;;9.90;99.90;;;;;;6251137;23;20268;-92
2022/05/30 14:13:33;;;;;;;3.00;1.10;;;10.00;99.90;;;;;;6252653;23;20167;-92
2022/05/30 14:16:11;;;;;;;2.53;1.20;;;10.10;99.90;;;;;;6226916;23;20246;-91
2022/05/30 14:18:57;;;;;;;2.87;1.17;;;10.10;99.90;;;;;;6251848;23;20175;-92
2022/05/30 14:21:38;;;;;;;2.90;1.00;;;10.20;99.90;;;;;;6251251;23;20676;-92
2022/05/30 14:24:25;;;;;;;3.70;1.37;;;10.20;99.90;;;;;;6252583;23;20163;-92
2022/05/30 14:26:59;;;;;;;3.77;1.20;;;10.30;99.90;;;;;;6252392;23;20234;-91
2022/05/30 14:29:34;;;;;;;5.07;1.53;;;10.30;99.90;;;;;;6252690;23;20232;-93
2022/05/30 14:32:10;;;;;;;5.07;1.37;;;10.40;99.90;;;;;;6252850;23;20229;-92
2022/05/30 14:34:44;;;;;;;2.30;1.57;;;10.60;99.90;;;;;;6265612;23;20168;-92
2022/05/30 14:37:34;;;;;;;2.87;1.57;;;10.40;99.90;;;;;;6273224;22;20188;-93